Hollywood Park, Texas
Current Conditions -  °F | °C
As of 9:51 AM on Tuesday 21 Oct 2014 (Local Time) from KSAT Reporting Station
Few Clouds Few Clouds  
Wind Chill: 72°   Ceiling: Unl
Heat Index: 72°   Visibility: 10mi
Dew Point: 60°   Wind: 5mph
Humidity: 66%   Direction: 70°ENE
Pressure: 30.09"   Gusts: NA
Location:  29.5876°N, 98.474°W
Report Text: KSAT 211451Z 07004KT 10SM FEW250 22/16 A3009 RMK AO2 SLP172 T02220156 51016
Loading
Personal Weather Stations






























Interactive Weather Map
Tropical Storm Tracking
New forecast layout! Learn more

10-Day Weather Forecast

Advertisements
Track Severe Weather on mobile